Wetterdaten: Woche 20.10.03 - 26.10.03 (KW43)
Datum Zeit Temperatur Luftfeuchte Luftdruck Regenmenge Wind Richtung Taupunkt Windchill
20.10.2003 00:00 4.3 C 91 % 1003.5 hPa 0.0 l/m 0.2 km/h (0 Bft) N 2.9 C 4.3 C
20.10.2003 01:00 4.5 C 91 % 1002.3 hPa 0.0 l/m 0.0 km/h (0 Bft) N 3.2 C 4.5 C
20.10.2003 02:00 4.4 C 94 % 1001.4 hPa 0.0 l/m 0.0 km/h (0 Bft) N 3.5 C 4.4 C
20.10.2003 03:00 4.4 C 93 % 1001.1 hPa 0.4 l/m 0.0 km/h (0 Bft) N 3.4 C 4.4 C
20.10.2003 04:00 4.5 C 96 % 1000.4 hPa 1.1 l/m 0.6 km/h (0 Bft) O-SO 3.8 C 4.4 C
20.10.2003 05:00 4.6 C 97 % 999.4 hPa 1.4 l/m 0.5 km/h (0 Bft) N-NW 4.2 C 4.5 C
20.10.2003 06:00 4.6 C 96 % 999.2 hPa 0.4 l/m 1.1 km/h (1 Bft) NW 4.0 C 4.5 C
20.10.2003 07:00 4.7 C 96 % 998.5 hPa 0.0 l/m 0.5 km/h (0 Bft) O-SO 4.0 C 4.7 C
20.10.2003 08:00 5.0 C 98 % 998.6 hPa 0.0 l/m 0.0 km/h (0 Bft) N 4.7 C 5.0 C
20.10.2003 09:00 5.2 C 100 % 999.0 hPa 0.0 l/m 0.4 km/h (0 Bft) O-SO 5.2 C 5.2 C
20.10.2003 10:00 5.5 C 100 % 999.3 hPa 0.0 l/m 0.1 km/h (0 Bft) SW 5.5 C 5.5 C
20.10.2003 11:00 6.0 C 100 % 999.1 hPa 0.0 l/m 0.1 km/h (0 Bft) N 6.0 C 6.0 C
20.10.2003 12:00 6.6 C 99 % 999.0 hPa 0.0 l/m 0.0 km/h (0 Bft) N 6.4 C 6.6 C
20.10.2003 13:00 7.4 C 96 % 998.3 hPa 0.0 l/m 0.0 km/h (0 Bft) N 6.8 C 7.4 C
20.10.2003 14:00 7.4 C 96 % 998.3 hPa 0.0 l/m 0.0 km/h (0 Bft) N 6.8 C 7.4 C
20.10.2003 15:00 7.6 C 97 % 998.6 hPa 0.0 l/m 0.0 km/h (0 Bft) N 7.1 C 7.6 C
20.10.2003 16:00 7.4 C 99 % 998.9 hPa 0.0 l/m 0.0 km/h (0 Bft) N 7.3 C 7.4 C
20.10.2003 17:00 7.8 C 100 % 999.3 hPa 0.0 l/m 1.2 km/h (1 Bft) W 7.7 C 7.6 C
20.10.2003 18:00 8.0 C 93 % 999.3 hPa 0.0 l/m 2.7 km/h (1 Bft) W-NW 7.0 C 7.8 C
20.10.2003 19:00 7.8 C 97 % 999.3 hPa 0.0 l/m 0.3 km/h (0 Bft) O 7.3 C 7.8 C
20.10.2003 20:00 7.8 C 90 % 999.3 hPa 0.0 l/m 1.9 km/h (1 Bft) W-NW 6.3 C 7.6 C
20.10.2003 21:00 7.8 C 88 % 999.5 hPa 0.4 l/m 2.3 km/h (1 Bft) NW 5.9 C 7.5 C
20.10.2003 22:00 7.5 C 91 % 999.3 hPa 0.7 l/m 1.0 km/h (0 Bft) NW 6.1 C 7.4 C
20.10.2003 23:00 7.4 C 95 % 999.1 hPa 0.0 l/m 0.0 km/h (0 Bft) N 6.7 C 7.4 C
21.10.2003 00:00 7.4 C 96 % 998.3 hPa 0.7 l/m 0.0 km/h (0 Bft) N 6.8 C 7.4 C
21.10.2003 01:00 7.4 C 100 % 997.5 hPa 0.7 l/m 0.1 km/h (0 Bft) N-NW 7.3 C 7.4 C
21.10.2003 02:00 7.4 C 100 % 997.2 hPa 0.0 l/m 0.3 km/h (0 Bft) O 7.4 C 7.4 C
21.10.2003 03:00 7.4 C 100 % 997.2 hPa 0.7 l/m 2.3 km/h (1 Bft) O-SO 7.3 C 7.0 C
21.10.2003 04:00 7.4 C 99 % 997.7 hPa 2.2 l/m 1.6 km/h (1 Bft) NW 7.3 C 7.2 C
21.10.2003 05:00 6.3 C 97 % 999.3 hPa 0.4 l/m 26.5 km/h (4 Bft) W-NW 5.8 C 2.2 C
21.10.2003 06:00 5.2 C 95 % 1001.7 hPa 0.0 l/m 28.3 km/h (4 Bft) NW 4.5 C 0.5 C
21.10.2003 07:00 4.7 C 92 % 1004.1 hPa 0.0 l/m 25.1 km/h (4 Bft) W-NW 3.6 C 0.3 C
21.10.2003 08:00 4.3 C 91 % 1006.0 hPa 0.0 l/m 21.2 km/h (4 Bft) W-NW 3.0 C 0.2 C
21.10.2003 09:00 4.4 C 88 % 1007.4 hPa 0.0 l/m 20.8 km/h (4 Bft) W-NW 2.7 C 0.6 C
21.10.2003 10:00 4.5 C 89 % 1008.6 hPa 0.0 l/m 11.0 km/h (2 Bft) W 2.8 C 2.4 C
21.10.2003 11:00 5.0 C 87 % 1009.5 hPa 0.0 l/m 21.6 km/h (4 Bft) W-NW 3.0 C 1.2 C
21.10.2003 12:00 5.0 C 86 % 1010.5 hPa 0.0 l/m 20.8 km/h (4 Bft) W-NW 2.9 C 1.4 C
21.10.2003 13:00 5.6 C 80 % 1010.8 hPa 0.0 l/m 21.9 km/h (4 Bft) W-NW 2.4 C 1.8 C
21.10.2003 14:00 7.1 C 69 % 1010.8 hPa 0.0 l/m 23.4 km/h (4 Bft) W-NW 1.8 C 3.4 C
21.10.2003 15:00 7.4 C 67 % 1010.8 hPa 0.0 l/m 18.9 km/h (3 Bft) W-NW 1.7 C 4.4 C
21.10.2003 16:00 6.8 C 72 % 1010.8 hPa 0.0 l/m 9.9 km/h (2 Bft) W-NW 2.1 C 5.0 C
21.10.2003 17:00 6.2 C 77 % 1010.8 hPa 0.0 l/m 13.8 km/h (3 Bft) W-NW 2.5 C 3.6 C
21.10.2003 18:00 4.9 C 80 % 1011.6 hPa 0.0 l/m 0.5 km/h (0 Bft) W-SW 1.7 C 4.8 C
21.10.2003 19:00 4.9 C 80 % 1011.8 hPa 0.0 l/m 7.6 km/h (2 Bft) W-NW 1.8 C 3.3 C
21.10.2003 20:00 5.0 C 80 % 1012.8 hPa 0.0 l/m 2.0 km/h (1 Bft) W-NW 1.9 C 4.6 C
21.10.2003 21:00 4.4 C 82 % 1012.8 hPa 0.0 l/m 0.4 km/h (0 Bft) W-NW 1.6 C 4.3 C
21.10.2003 22:00 3.6 C 85 % 1012.8 hPa 0.0 l/m 0.4 km/h (0 Bft) W-NW 1.3 C 3.6 C
21.10.2003 23:00 1.9 C 87 % 1012.8 hPa 0.0 l/m 0.6 km/h (0 Bft) W-NW 0.0 C 1.7 C
22.10.2003 00:00 1.4 C 91 % 1012.8 hPa 0.0 l/m 3.3 km/h (1 Bft) W-NW 0.1 C 0.5 C
22.10.2003 01:00 0.6 C 93 % 1012.8 hPa 0.0 l/m 2.3 km/h (1 Bft) W-NW -0.5 C -0.0 C
22.10.2003 02:00 1.2 C 94 % 1012.8 hPa 0.0 l/m 0.9 km/h (0 Bft) W-NW 0.4 C 1.0 C
22.10.2003 03:00 1.8 C 96 % 1012.8 hPa 0.0 l/m 2.4 km/h (1 Bft) W-NW 1.1 C 1.2 C
22.10.2003 04:00 1.5 C 95 % 1012.8 hPa 0.0 l/m 5.0 km/h (1 Bft) O-SO 0.8 C -0.0 C
22.10.2003 05:00 1.4 C 97 % 1012.8 hPa 0.0 l/m 0.0 km/h (0 Bft) N 1.0 C 1.4 C
22.10.2003 06:00 1.3 C 97 % 1012.8 hPa 0.0 l/m 1.2 km/h (1 Bft) O 0.9 C 1.0 C
22.10.2003 07:00 1.0 C 97 % 1012.8 hPa 0.0 l/m 0.8 km/h (0 Bft) O-NO 0.5 C 0.9 C
22.10.2003 08:00 0.8 C 98 % 1012.8 hPa 0.0 l/m 1.9 km/h (1 Bft) O-NO 0.5 C 0.5 C
22.10.2003 09:00 1.3 C 100 % 1012.8 hPa 0.0 l/m 0.1 km/h (0 Bft) N 1.3 C 1.3 C
22.10.2003 10:00 2.0 C 97 % 1012.8 hPa 0.0 l/m 0.8 km/h (0 Bft) W-NW 1.7 C 1.9 C
22.10.2003 11:00 3.2 C 90 % 1012.6 hPa 0.0 l/m 3.2 km/h (1 Bft) W-NW 1.7 C 2.4 C
22.10.2003 12:00 4.6 C 84 % 1011.8 hPa 0.0 l/m 2.1 km/h (1 Bft) W-NW 2.1 C 4.2 C
22.10.2003 13:00 6.9 C 72 % 1011.0 hPa 0.0 l/m 3.3 km/h (1 Bft) NW 2.1 C 6.4 C
22.10.2003 14:00 8.9 C 53 % 1010.8 hPa 0.0 l/m 5.9 km/h (2 Bft) O -0.3 C 8.0 C
22.10.2003 15:00 9.4 C 47 % 1009.8 hPa 0.0 l/m 3.4 km/h (1 Bft) O -1.2 C 9.1 C
22.10.2003 16:00 9.1 C 42 % 1009.7 hPa 0.0 l/m 5.7 km/h (1 Bft) O-SO -3.1 C 8.2 C
22.10.2003 17:00 8.2 C 44 % 1008.9 hPa 0.0 l/m 10.1 km/h (2 Bft) O-SO -3.2 C 6.5 C
22.10.2003 18:00 5.8 C 59 % 1008.7 hPa 0.0 l/m 5.1 km/h (1 Bft) O-SO -1.6 C 4.8 C
22.10.2003 19:00 3.5 C 74 % 1008.7 hPa 0.0 l/m 0.6 km/h (0 Bft) O-SO -0.7 C 3.5 C
22.10.2003 20:00 2.0 C 83 % 1008.7 hPa 0.0 l/m 0.1 km/h (0 Bft) N-NO -0.5 C 2.0 C
22.10.2003 21:00 2.7 C 86 % 1008.7 hPa 0.0 l/m 0.8 km/h (0 Bft) O 0.7 C 2.7 C
22.10.2003 22:00 3.5 C 82 % 1008.7 hPa 0.0 l/m 4.9 km/h (1 Bft) O 0.6 C 2.4 C
22.10.2003 23:00 3.5 C 78 % 1008.7 hPa 0.0 l/m 1.3 km/h (1 Bft) N-NO -0.0 C 3.4 C
23.10.2003 00:00 3.5 C 78 % 1008.0 hPa 0.0 l/m 1.2 km/h (1 Bft) NO 0.1 C 3.4 C
23.10.2003 01:00 3.7 C 79 % 1007.6 hPa 0.0 l/m 0.5 km/h (0 Bft) NO 0.4 C 3.7 C
23.10.2003 02:00 3.8 C 80 % 1007.2 hPa 0.0 l/m 0.5 km/h (0 Bft) NO 0.8 C 3.8 C
23.10.2003 03:00 3.9 C 78 % 1006.6 hPa 0.0 l/m 0.4 km/h (0 Bft) N 0.5 C 3.9 C
23.10.2003 04:00 4.0 C 78 % 1006.1 hPa 0.0 l/m 0.5 km/h (0 Bft) N-NO 0.5 C 4.0 C
23.10.2003 05:00 4.1 C 78 % 1005.3 hPa 0.0 l/m 6.0 km/h (2 Bft) O 0.6 C 2.8 C
23.10.2003 06:00 4.2 C 77 % 1005.6 hPa 0.0 l/m 1.3 km/h (1 Bft) W 0.6 C 4.0 C
23.10.2003 07:00 4.1 C 78 % 1004.6 hPa 0.0 l/m 2.7 km/h (1 Bft) NO 0.5 C 3.6 C
23.10.2003 08:00 4.2 C 76 % 1004.5 hPa 0.0 l/m 1.6 km/h (1 Bft) NO 0.5 C 4.0 C
23.10.2003 09:00 4.6 C 76 % 1004.5 hPa 0.0 l/m 0.7 km/h (0 Bft) O-NO 0.6 C 4.6 C
23.10.2003 10:00 4.8 C 74 % 1004.5 hPa 0.0 l/m 1.5 km/h (1 Bft) N-NO 0.5 C 4.6 C
23.10.2003 11:00 5.0 C 71 % 1005.5 hPa 0.0 l/m 0.7 km/h (0 Bft) NO 0.2 C 5.0 C
23.10.2003 12:00 4.9 C 72 % 1005.6 hPa 0.0 l/m 1.4 km/h (1 Bft) O-NO 0.2 C 4.7 C
23.10.2003 13:00 4.7 C 72 % 1005.6 hPa 0.0 l/m 0.9 km/h (0 Bft) N-NO 0.1 C 4.6 C
23.10.2003 14:00 4.5 C 74 % 1005.6 hPa 0.0 l/m 1.2 km/h (1 Bft) N-NO 0.3 C 4.3 C
23.10.2003 15:00 4.1 C 77 % 1005.6 hPa 0.4 l/m 0.3 km/h (0 Bft) N-NO 0.5 C 4.1 C
23.10.2003 16:00 3.2 C 85 % 1006.4 hPa 2.2 l/m 0.0 km/h (0 Bft) N 0.9 C 3.2 C
23.10.2003 17:00 2.5 C 89 % 1006.9 hPa 2.2 l/m 0.0 km/h (0 Bft) N 0.8 C 2.5 C
23.10.2003 18:00 1.9 C 93 % 1007.6 hPa 1.8 l/m 0.4 km/h (0 Bft) NW 0.9 C 1.8 C
23.10.2003 19:00 1.2 C 99 % 1008.4 hPa 1.4 l/m 1.1 km/h (1 Bft) W-NW 1.1 C 1.1 C
23.10.2003 20:00 0.9 C 98 % 1008.7 hPa 0.7 l/m 0.0 km/h (0 Bft) N 0.6 C 0.9 C
23.10.2003 21:00 0.8 C 98 % 1008.7 hPa 1.1 l/m 0.0 km/h (0 Bft) N 0.5 C 0.8 C
23.10.2003 22:00 0.9 C 94 % 1009.5 hPa 0.4 l/m 0.0 km/h (0 Bft) N 0.0 C 0.9 C
23.10.2003 23:00 0.7 C 94 % 1009.7 hPa 0.7 l/m 0.1 km/h (0 Bft) N -0.1 C 0.7 C
24.10.2003 00:00 0.8 C 94 % 1009.7 hPa 0.4 l/m 0.4 km/h (0 Bft) O-NO -0.1 C 0.6 C
24.10.2003 01:00 0.4 C 94 % 1010.6 hPa 0.0 l/m 2.1 km/h (1 Bft) O-NO -0.4 C -0.1 C
24.10.2003 02:00 0.0 C 92 % 1010.8 hPa 0.0 l/m 0.5 km/h (0 Bft) N -1.0 C -0.0 C
24.10.2003 03:00 -0.2 C 92 % 1011.0 hPa 0.4 l/m 0.7 km/h (0 Bft) O-NO -1.3 C -0.3 C
24.10.2003 04:00 -0.3 C 92 % 1011.8 hPa 0.0 l/m 0.5 km/h (0 Bft) S-SO -1.4 C -0.4 C
24.10.2003 05:00 -0.4 C 92 % 1012.1 hPa 0.0 l/m 0.3 km/h (0 Bft) O-SO -1.5 C -0.5 C
24.10.2003 06:00 -0.4 C 92 % 1012.8 hPa 0.0 l/m 0.2 km/h (0 Bft) SO -1.5 C -0.4 C
24.10.2003 07:00 -0.4 C 93 % 1013.2 hPa 0.0 l/m 0.1 km/h (0 Bft) N -1.5 C -0.4 C
24.10.2003 08:00 -0.4 C 93 % 1014.2 hPa 0.0 l/m 1.3 km/h (1 Bft) SO -1.4 C -0.8 C
24.10.2003 09:00 -0.3 C 89 % 1015.2 hPa 0.0 l/m 1.5 km/h (1 Bft) SO -1.9 C -0.6 C
24.10.2003 10:00 0.1 C 94 % 1016.0 hPa 0.0 l/m 0.0 km/h (0 Bft) N -0.8 C 0.1 C
24.10.2003 11:00 0.3 C 94 % 1016.6 hPa 0.0 l/m 0.4 km/h (0 Bft) N-NO -0.5 C 0.2 C
24.10.2003 12:00 0.8 C 90 % 1017.0 hPa 0.0 l/m 4.9 km/h (1 Bft) O-SO -0.6 C -0.6 C
24.10.2003 13:00 1.1 C 86 % 1017.0 hPa 0.0 l/m 2.2 km/h (1 Bft) O -1.0 C 0.7 C
24.10.2003 14:00 0.8 C 85 % 1017.3 hPa 0.0 l/m 0.5 km/h (0 Bft) NO -1.3 C 0.8 C
24.10.2003 15:00 1.3 C 79 % 1018.1 hPa 0.0 l/m 2.0 km/h (1 Bft) O-SO -2.0 C 0.8 C
24.10.2003 16:00 1.8 C 66 % 1018.1 hPa 0.0 l/m 11.7 km/h (2 Bft) O-SO -4.0 C -1.2 C
24.10.2003 17:00 0.5 C 64 % 1018.2 hPa 0.0 l/m 4.3 km/h (1 Bft) O-SO -5.5 C -0.6 C
24.10.2003 18:00 -1.3 C 77 % 1019.1 hPa 0.0 l/m 0.5 km/h (0 Bft) O -4.9 C -1.3 C
24.10.2003 19:00 -2.2 C 84 % 1020.0 hPa 0.0 l/m 0.3 km/h (0 Bft) O -4.5 C -2.3 C
24.10.2003 20:00 -2.7 C 87 % 1020.2 hPa 0.0 l/m 0.0 km/h (0 Bft) N -4.6 C -2.7 C
24.10.2003 21:00 -3.3 C 88 % 1021.2 hPa 0.0 l/m 0.4 km/h (0 Bft) O -5.0 C -3.3 C
24.10.2003 22:00 -3.7 C 88 % 1021.3 hPa 0.0 l/m 0.5 km/h (0 Bft) O -5.4 C -3.7 C
24.10.2003 23:00 -3.5 C 88 % 1022.2 hPa 0.0 l/m 1.0 km/h (0 Bft) O -5.2 C -3.8 C
25.10.2003 00:00 -2.5 C 91 % 1022.2 hPa 0.0 l/m 1.1 km/h (0 Bft) O -3.9 C -2.7 C
25.10.2003 01:00 -2.6 C 97 % 1022.5 hPa 0.0 l/m 0.7 km/h (0 Bft) O -3.0 C -2.7 C
25.10.2003 02:00 -2.5 C 94 % 1023.1 hPa 0.0 l/m 1.1 km/h (1 Bft) O -3.3 C -2.9 C
25.10.2003 03:00 -3.0 C 96 % 1023.3 hPa 0.0 l/m 0.3 km/h (0 Bft) O -3.5 C -3.0 C
25.10.2003 04:00 -3.2 C 96 % 1023.3 hPa 0.0 l/m 0.0 km/h (0 Bft) O -3.7 C -3.2 C
25.10.2003 05:00 -2.9 C 93 % 1023.3 hPa 0.0 l/m 2.1 km/h (1 Bft) O -4.0 C -3.6 C
25.10.2003 06:00 -3.2 C 94 % 1023.3 hPa 0.0 l/m 3.8 km/h (1 Bft) O -4.0 C -4.5 C
25.10.2003 07:00 -3.5 C 97 % 1024.1 hPa 0.0 l/m 1.0 km/h (0 Bft) O -3.9 C -3.7 C
25.10.2003 08:00 -3.5 C 98 % 1024.5 hPa 0.0 l/m 1.3 km/h (1 Bft) O -3.8 C -4.0 C
25.10.2003 09:00 -3.1 C 98 % 1025.3 hPa 0.0 l/m 1.4 km/h (1 Bft) O -3.4 C -3.5 C
25.10.2003 10:00 -2.4 C 95 % 1025.3 hPa 0.0 l/m 2.1 km/h (1 Bft) O -3.1 C -3.1 C
25.10.2003 11:00 -1.4 C 89 % 1025.3 hPa 0.0 l/m 1.6 km/h (1 Bft) O -3.0 C -1.7 C
25.10.2003 12:00 -0.0 C 82 % 1025.3 hPa 0.0 l/m 1.5 km/h (1 Bft) W-NW -2.7 C -0.3 C
25.10.2003 13:00 2.1 C 71 % 1024.3 hPa 0.0 l/m 3.7 km/h (1 Bft) NW -2.6 C 1.1 C
25.10.2003 14:00 4.3 C 60 % 1023.3 hPa 0.0 l/m 4.3 km/h (1 Bft) W -2.9 C 3.4 C
25.10.2003 15:00 5.4 C 58 % 1023.0 hPa 0.0 l/m 3.7 km/h (1 Bft) W-NW -2.1 C 4.7 C
25.10.2003 16:00 5.9 C 58 % 1022.2 hPa 0.0 l/m 2.5 km/h (1 Bft) W -1.8 C 5.6 C
25.10.2003 17:00 4.3 C 67 % 1022.2 hPa 0.0 l/m 2.4 km/h (1 Bft) W-NW -1.2 C 3.9 C
25.10.2003 18:00 2.7 C 79 % 1022.1 hPa 0.0 l/m 0.1 km/h (0 Bft) N -0.7 C 2.7 C
25.10.2003 19:00 2.2 C 83 % 1022.2 hPa 0.0 l/m 3.0 km/h (1 Bft) SO -0.3 C 1.5 C
25.10.2003 20:00 1.9 C 86 % 1021.6 hPa 0.0 l/m 0.4 km/h (0 Bft) N -0.3 C 1.9 C
25.10.2003 21:00 1.7 C 86 % 1021.2 hPa 0.0 l/m 1.0 km/h (0 Bft) W-NW -0.5 C 1.5 C
25.10.2003 22:00 1.0 C 85 % 1021.2 hPa 0.0 l/m 1.8 km/h (1 Bft) S -1.2 C 0.8 C
25.10.2003 23:00 0.0 C 87 % 1020.1 hPa 0.0 l/m 0.8 km/h (0 Bft) O-SO -1.9 C 0.0 C
26.10.2003 00:00 -0.9 C 89 % 1020.1 hPa 0.0 l/m 4.7 km/h (1 Bft) O -2.5 C -2.4 C
26.10.2003 01:00 -0.9 C 90 % 1020.1 hPa 0.0 l/m 7.2 km/h (2 Bft) O-SO -2.3 C -3.4 C
26.10.2003 02:00 -1.1 C 91 % 1019.7 hPa 0.0 l/m 2.0 km/h (1 Bft) O -2.3 C -1.5 C
26.10.2003 03:00 -1.6 C 90 % 1018.1 hPa 0.0 l/m 0.1 km/h (0 Bft) N -3.0 C -1.6 C
26.10.2003 04:00 -1.7 C 91 % 1017.2 hPa 0.0 l/m 0.2 km/h (0 Bft) S -3.1 C -1.7 C
26.10.2003 05:00 -1.8 C 90 % 1017.0 hPa 0.0 l/m 1.1 km/h (1 Bft) S -3.2 C -1.9 C
26.10.2003 06:00 -1.9 C 91 % 1017.0 hPa 0.0 l/m 4.6 km/h (1 Bft) O -3.3 C -3.4 C
26.10.2003 07:00 -1.8 C 91 % 1017.0 hPa 0.0 l/m 1.2 km/h (1 Bft) S-SO -3.1 C -2.0 C
26.10.2003 08:00 -0.9 C 89 % 1017.0 hPa 0.0 l/m 0.3 km/h (0 Bft) O -2.6 C -1.0 C
26.10.2003 09:00 -0.1 C 83 % 1017.0 hPa 0.0 l/m 0.7 km/h (0 Bft) W-NW -2.7 C -0.1 C
26.10.2003 10:00 1.3 C 77 % 1017.0 hPa 0.0 l/m 5.0 km/h (1 Bft) O-SO -2.3 C -0.1 C
26.10.2003 11:00 3.6 C 67 % 1016.0 hPa 0.0 l/m 6.0 km/h (2 Bft) SO -2.0 C 2.1 C
26.10.2003 12:00 5.1 C 59 % 1015.7 hPa 0.0 l/m 3.1 km/h (1 Bft) O -2.4 C 4.5 C
26.10.2003 13:00 6.5 C 52 % 1014.9 hPa 0.0 l/m 6.5 km/h (2 Bft) O -2.5 C 5.3 C
26.10.2003 14:00 7.3 C 46 % 1014.7 hPa 0.0 l/m 2.4 km/h (1 Bft) O -3.4 C 7.1 C
26.10.2003 15:00 6.9 C 48 % 1013.9 hPa 0.0 l/m 2.4 km/h (1 Bft) SO -3.4 C 6.6 C
26.10.2003 16:00 5.4 C 55 % 1013.9 hPa 0.0 l/m 1.2 km/h (1 Bft) SO -2.9 C 5.3 C
26.10.2003 17:00 2.9 C 74 % 1013.9 hPa 0.0 l/m 5.3 km/h (1 Bft) O-SO -1.2 C 1.6 C
26.10.2003 18:00 1.2 C 84 % 1014.3 hPa 0.0 l/m 3.2 km/h (1 Bft) O -1.2 C 0.5 C
26.10.2003 19:00 -0.1 C 85 % 1014.1 hPa 0.0 l/m 1.7 km/h (1 Bft) O -2.3 C -0.5 C
26.10.2003 20:00 -1.0 C 87 % 1014.7 hPa 0.0 l/m 1.7 km/h (1 Bft) O -2.9 C -1.4 C
26.10.2003 21:00 -1.9 C 88 % 1014.9 hPa 0.0 l/m 0.0 km/h (0 Bft) N -3.7 C -1.9 C
26.10.2003 22:00 -2.6 C 88 % 1014.9 hPa 0.0 l/m 0.0 km/h (0 Bft) N -4.3 C -2.6 C
26.10.2003 23:00 -2.9 C 89 % 1014.9 hPa 0.0 l/m 0.0 km/h (0 Bft) N -4.5 C -2.9 C
Min-Datum _ 24.10.03 22.10.03 21.10.03 - 20.10.03 - 24.10.03 25.10.03
_ Min-Zeit 22:28 16:13 02:00 - 00:01 - 18:10 08:31
Minimum _ -4.2 C 40 % 997.2 hPa - 0.0 km/h (0 Bft) - -6.0 C -7.5 C
Max-Datum _ 22.10.03 20.10.03 25.10.03 21.10.03 21.10.03 - 20.10.03 22.10.03
_ Max-Zeit 15:22 04:04 08:50 03:00 13:10 - 17:49 15:22
Maximum _ 9.6 C 100 % 1025.3 hPa 2.2 l/m 49.4 km/h
W-NW (6 Bft)
- 8.1 C 9.6 C
Durchschnitt _ 2.7 C 85 % 1011.3 hPa #20.5 l/m 3.1 km/h (1 Bft) W-NW 0.3 C 2.1 C

Durchschnitt Minimum Temp.2.2 C
Durchschnitt Maximum Temp.3.2 C
© Kaiko 2003